Time;durP1;ratioP1;P1;durP2;ratioP2;P2;SDS_P1;SDS_P2;PMS_P1;PMS_P2;Temp;Humidity;BMP_temperature;BMP_pressure;BME280_temperature;BME280_humidity;BME280_pressure;Samples;Min_cycle;Max_cycle;Signal;HPM_P1;HPM_P2
2023/08/27 00:00:05;;;;;;;8.30;5.40;;;17.30;63.60;;;;;;5104347;27;46573;-70
2023/08/27 00:02:31;;;;;;;15.90;6.20;;;17.30;63.60;;;;;;5102447;27;46468;-70
2023/08/27 00:04:56;;;;;;;8.03;5.20;;;17.30;63.60;;;;;;5102290;27;47027;-69
2023/08/27 00:07:23;;;;;;;9.80;5.53;;;17.30;63.70;;;;;;5104107;27;46378;-69
2023/08/27 00:09:48;;;;;;;9.30;6.13;;;17.20;63.90;;;;;;5104828;27;46936;-69
2023/08/27 00:12:14;;;;;;;12.20;5.17;;;17.30;64.00;;;;;;5105443;27;45929;-69
2023/08/27 00:14:39;;;;;;;12.13;5.07;;;17.30;63.90;;;;;;5106926;27;46673;-69
2023/08/27 00:17:05;;;;;;;13.57;5.50;;;17.30;63.80;;;;;;5103504;27;45841;-70
2023/08/27 00:19:32;;;;;;;10.13;4.90;;;17.30;64.00;;;;;;5102374;27;46437;-69
2023/08/27 00:21:58;;;;;;;14.20;5.40;;;17.30;64.00;;;;;;5103880;27;46489;-69
2023/08/27 00:24:24;;;;;;;10.50;5.70;;;17.30;63.90;;;;;;5102971;27;46858;-69
2023/08/27 00:26:50;;;;;;;9.10;4.70;;;17.30;63.90;;;;;;5104908;27;46551;-70
2023/08/27 00:29:19;;;;;;;14.57;5.30;;;17.30;64.00;;;;;;5103325;27;45867;-71
2023/08/27 00:31:44;;;;;;;10.93;5.27;;;17.30;64.10;;;;;;5105484;27;46437;-69
2023/08/27 00:34:10;;;;;;;13.87;5.07;;;17.30;64.30;;;;;;5103577;27;47338;-71
2023/08/27 00:36:35;;;;;;;6.43;4.53;;;17.30;63.30;;;;;;5107115;27;46800;-70
2023/08/27 00:39:02;;;;;;;7.97;4.40;;;17.30;64.30;;;;;;5106167;27;46436;-67
2023/08/27 00:41:27;;;;;;;10.70;4.83;;;17.30;64.30;;;;;;5101431;27;46480;-69
2023/08/27 00:43:53;;;;;;;13.60;5.90;;;17.30;64.30;;;;;;5104045;27;46643;-69
2023/08/27 00:46:19;;;;;;;13.93;5.20;;;17.30;64.40;;;;;;5085137;27;47044;-70
2023/08/27 00:48:45;;;;;;;8.43;5.63;;;17.30;64.50;;;;;;5100572;27;45935;-69
2023/08/27 00:51:11;;;;;;;9.13;5.53;;;17.30;64.50;;;;;;5085449;27;46665;-69
2023/08/27 00:53:38;;;;;;;8.27;5.73;;;17.30;64.30;;;;;;5107930;27;46513;-69
2023/08/27 00:56:05;;;;;;;9.30;6.00;;;17.30;64.40;;;;;;5103940;27;46713;-69
2023/08/27 00:58:31;;;;;;;11.20;5.83;;;17.30;64.70;;;;;;5102397;27;46445;-69
2023/08/27 01:00:58;;;;;;;8.80;5.53;;;17.30;64.60;;;;;;5104625;27;46633;-71
2023/08/27 01:03:24;;;;;;;8.70;5.37;;;17.20;64.70;;;;;;5108216;27;47304;-69
2023/08/27 01:05:51;;;;;;;11.73;5.30;;;17.20;64.70;;;;;;5110189;27;46528;-69
2023/08/27 01:08:38;;;;;;;17.87;5.67;;;17.10;64.80;;;;;;5110311;27;46615;-68
2023/08/27 01:11:46;;;;;;;7.80;4.80;;;17.20;64.90;;;;;;5108831;27;46496;-69
2023/08/27 01:14:14;;;;;;;20.57;6.10;;;17.20;64.60;;;;;;5065138;27;47362;-68
2023/08/27 01:16:41;;;;;;;9.00;5.80;;;17.30;63.40;;;;;;5106076;27;46465;-68
2023/08/27 01:19:13;;;;;;;22.70;5.37;;;17.30;64.40;;;;;;5107464;27;45819;-69
2023/08/27 01:21:39;;;;;;;6.80;5.07;;;17.40;64.20;;;;;;5109338;27;46839;-69
2023/08/27 01:24:06;;;;;;;8.30;5.07;;;17.40;63.90;;;;;;5106073;27;46775;-69
2023/08/27 01:26:46;;;;;;;10.53;5.27;;;17.50;62.60;;;;;;5109683;27;46514;-68
2023/08/27 01:29:23;;;;;;;9.83;5.13;;;17.50;63.60;;;;;;5110100;27;46437;-70
2023/08/27 01:31:59;;;;;;;7.83;5.37;;;17.60;63.40;;;;;;5106507;27;46892;-70
2023/08/27 01:34:25;;;;;;;8.53;4.93;;;17.70;63.20;;;;;;5108349;27;47278;-69
2023/08/27 01:36:51;;;;;;;13.17;5.73;;;17.70;63.00;;;;;;5108723;27;46426;-69
2023/08/27 01:39:17;;;;;;;12.00;5.80;;;17.80;62.90;;;;;;5110947;27;46516;-68
2023/08/27 01:41:42;;;;;;;12.47;6.10;;;17.80;62.90;;;;;;5105851;27;46481;-68
2023/08/27 01:44:08;;;;;;;7.97;5.57;;;17.80;62.80;;;;;;5110027;27;47188;-69
2023/08/27 01:46:34;;;;;;;9.30;5.33;;;17.80;62.90;;;;;;5106341;27;46515;-70
2023/08/27 01:48:59;;;;;;;7.57;5.00;;;17.90;62.90;;;;;;5094045;27;46467;-69
2023/08/27 01:51:25;;;;;;;12.03;6.17;;;17.90;62.90;;;;;;5106793;27;46445;-69
2023/08/27 01:53:50;;;;;;;12.13;5.70;;;17.80;63.00;;;;;;5108740;27;47083;-69
2023/08/27 01:56:16;;;;;;;6.63;5.23;;;17.80;63.10;;;;;;5111625;27;45834;-69
2023/08/27 01:58:41;;;;;;;12.17;5.37;;;17.90;63.50;;;;;;5105024;27;46852;-69
2023/08/27 02:01:07;;;;;;;12.40;6.07;;;17.90;63.30;;;;;;5109943;27;46422;-68
2023/08/27 02:03:32;;;;;;;10.60;6.00;;;17.90;63.40;;;;;;5107429;27;46763;-69
2023/08/27 02:05:58;;;;;;;9.60;5.90;;;17.90;63.50;;;;;;5108796;27;46471;-68
2023/08/27 02:08:24;;;;;;;7.60;5.00;;;17.90;63.50;;;;;;5106127;27;46270;-69
2023/08/27 02:10:49;;;;;;;13.07;6.03;;;18.00;63.50;;;;;;5107326;27;46461;-69
2023/08/27 02:13:15;;;;;;;8.60;4.77;;;17.90;63.50;;;;;;5106868;27;47264;-69
2023/08/27 02:15:43;;;;;;;8.40;5.10;;;17.90;63.50;;;;;;5106789;27;46315;-68
2023/08/27 02:18:09;;;;;;;8.33;5.20;;;18.00;63.40;;;;;;5106751;27;46125;-69
2023/08/27 02:20:34;;;;;;;7.70;5.37;;;17.90;63.50;;;;;;5108863;27;46633;-69
2023/08/27 02:23:00;;;;;;;7.07;4.57;;;18.00;63.30;;;;;;5107510;27;46576;-69
2023/08/27 02:25:25;;;;;;;7.17;4.70;;;18.00;63.50;;;;;;5104952;27;46466;-68
2023/08/27 02:27:51;;;;;;;8.80;4.73;;;18.00;63.40;;;;;;5106861;27;46424;-69
2023/08/27 02:30:16;;;;;;;9.83;4.73;;;17.90;63.50;;;;;;5106248;27;46667;-70
2023/08/27 02:32:42;;;;;;;9.07;5.17;;;17.90;63.50;;;;;;5106686;27;47829;-69
2023/08/27 02:35:08;;;;;;;7.30;4.23;;;18.00;63.50;;;;;;5107005;27;46480;-71
2023/08/27 02:37:33;;;;;;;9.13;4.60;;;18.00;63.50;;;;;;5108651;27;46359;-69
2023/08/27 02:39:59;;;;;;;5.77;3.93;;;18.00;63.50;;;;;;5106542;27;46537;-69
2023/08/27 02:42:24;;;;;;;8.60;4.77;;;17.90;63.50;;;;;;5107405;27;47019;-70
2023/08/27 02:44:50;;;;;;;8.20;5.50;;;17.90;63.60;;;;;;5105872;27;46604;-69
2023/08/27 02:47:16;;;;;;;10.63;4.50;;;17.90;64.80;;;;;;5089792;27;46522;-68
2023/08/27 02:49:42;;;;;;;10.40;4.67;;;18.00;63.50;;;;;;5108256;27;46496;-69
2023/08/27 02:52:07;;;;;;;13.57;5.03;;;18.00;63.50;;;;;;5105523;27;47989;-69
2023/08/27 02:54:33;;;;;;;7.83;4.63;;;17.90;63.40;;;;;;5104581;27;46538;-70
2023/08/27 02:56:58;;;;;;;5.93;4.00;;;17.90;63.50;;;;;;5106557;27;46787;-70
2023/08/27 02:59:24;;;;;;;6.60;4.10;;;17.90;63.50;;;;;;5096047;27;46459;-69
2023/08/27 03:01:52;;;;;;;7.40;4.33;;;17.90;63.70;;;;;;5110495;27;47556;-70
2023/08/27 03:04:18;;;;;;;5.80;3.77;;;17.90;63.70;;;;;;5107279;27;46466;-70
2023/08/27 03:06:43;;;;;;;6.67;3.63;;;17.80;62.90;;;;;;5086482;27;46678;-70
2023/08/27 03:09:09;;;;;;;5.57;3.33;;;17.80;64.00;;;;;;5106020;27;46863;-69
2023/08/27 03:11:34;;;;;;;5.10;3.13;;;17.80;64.00;;;;;;5105697;27;47059;-70
2023/08/27 03:14:00;;;;;;;6.23;3.40;;;17.70;64.10;;;;;;5105496;27;46634;-68
2023/08/27 03:16:26;;;;;;;6.40;3.77;;;;;;;;;;5106817;27;46885;-68
2023/08/27 03:18:52;;;;;;;6.43;3.50;;;17.70;63.20;;;;;;5105271;27;46527;-68
2023/08/27 03:21:17;;;;;;;5.03;3.30;;;17.70;64.20;;;;;;5105130;27;47077;-67
2023/08/27 03:23:43;;;;;;;7.53;4.20;;;17.70;64.00;;;;;;5107378;27;46407;-69
2023/08/27 03:26:08;;;;;;;5.50;3.20;;;17.70;63.90;;;;;;5105681;27;46766;-68
2023/08/27 03:28:34;;;;;;;6.70;3.60;;;17.70;63.80;;;;;;5106117;27;46788;-69
2023/08/27 03:31:03;;;;;;;7.80;4.10;;;17.70;63.80;;;;;;5106517;27;46702;-69
2023/08/27 03:33:31;;;;;;;7.97;4.80;;;17.70;63.80;;;;;;5104936;27;46711;-67
2023/08/27 03:35:57;;;;;;;8.60;4.93;;;17.70;63.90;;;;;;5103907;27;46742;-67
2023/08/27 03:38:24;;;;;;;7.00;4.53;;;17.60;63.80;;;;;;5105165;27;46485;-68
2023/08/27 03:40:50;;;;;;;6.63;4.43;;;17.70;63.90;;;;;;5103944;27;46470;-68
2023/08/27 03:43:16;;;;;;;8.30;5.20;;;17.70;63.80;;;;;;5105252;27;46456;-68
2023/08/27 03:45:42;;;;;;;6.97;4.40;;;17.70;63.70;;;;;;5105345;27;46453;-67
2023/08/27 03:48:08;;;;;;;9.27;4.77;;;17.70;63.70;;;;;;5105355;27;46740;-67
2023/08/27 03:50:36;;;;;;;7.20;4.87;;;17.70;63.60;;;;;;5104328;27;47112;-67
2023/08/27 03:53:02;;;;;;;6.80;5.23;;;17.70;63.80;;;;;;5105730;27;46557;-67
2023/08/27 03:55:28;;;;;;;7.53;5.00;;;17.60;63.80;;;;;;5102433;27;47498;-68
2023/08/27 03:57:54;;;;;;;9.00;5.37;;;17.60;63.90;;;;;;5103654;27;46592;-69
2023/08/27 04:00:20;;;;;;;7.00;5.00;;;17.60;64.00;;;;;;5104351;27;46446;-69
2023/08/27 04:02:45;;;;;;;7.30;5.13;;;17.60;63.90;;;;;;5106408;27;45873;-69
2023/08/27 04:05:11;;;;;;;5.87;4.20;;;17.60;63.80;;;;;;5106643;27;46697;-68
2023/08/27 04:07:37;;;;;;;10.60;4.77;;;17.70;63.80;;;;;;5107211;27;46361;-69
2023/08/27 04:10:04;;;;;;;7.30;4.60;;;17.70;63.60;;;;;;5105671;27;46996;-67
2023/08/27 04:12:31;;;;;;;10.87;4.73;;;17.70;63.60;;;;;;5106176;27;46615;-67
2023/08/27 04:14:57;;;;;;;8.70;4.90;;;17.70;63.70;;;;;;5105756;27;45940;-68
2023/08/27 04:17:23;;;;;;;8.80;5.27;;;17.70;63.70;;;;;;5104819;27;46375;-67
2023/08/27 04:19:48;;;;;;;7.87;4.53;;;17.70;63.80;;;;;;5101653;27;46515;-68
2023/08/27 04:22:14;;;;;;;6.70;4.40;;;17.60;63.70;;;;;;5105594;27;46431;-69
2023/08/27 04:24:41;;;;;;;8.80;4.70;;;17.60;64.10;;;;;;5103719;27;46756;-68
2023/08/27 04:27:07;;;;;;;8.70;4.57;;;17.50;64.40;;;;;;5104333;27;46538;-68
2023/08/27 04:29:32;;;;;;;6.40;3.87;;;17.50;64.40;;;;;;5108180;27;48322;-68
2023/08/27 04:31:58;;;;;;;6.93;4.70;;;17.40;64.50;;;;;;5103970;27;46482;-71
2023/08/27 04:34:24;;;;;;;5.37;3.70;;;17.40;64.60;;;;;;5105314;27;46788;-68
2023/08/27 04:36:49;;;;;;;6.10;4.13;;;17.40;64.50;;;;;;5103448;27;46470;-68
2023/08/27 04:39:15;;;;;;;6.33;4.07;;;17.50;64.50;;;;;;5105101;27;46564;-68
2023/08/27 04:41:40;;;;;;;5.93;4.23;;;17.50;64.20;;;;;;5102372;27;46436;-68
2023/08/27 04:44:06;;;;;;;9.20;4.40;;;17.50;64.10;;;;;;5105115;27;46568;-67
2023/08/27 04:46:32;;;;;;;6.00;3.33;;;17.50;63.00;;;;;;5104845;27;46899;-67
2023/08/27 04:48:58;;;;;;;6.77;4.30;;;17.50;64.10;;;;;;5102235;27;46456;-67
2023/08/27 04:51:27;;;;;;;7.63;4.00;;;17.60;64.10;;;;;;5107080;27;46553;-68
2023/08/27 04:53:53;;;;;;;6.27;3.73;;;17.60;64.10;;;;;;5104929;27;45890;-67
2023/08/27 04:56:18;;;;;;;5.33;3.70;;;17.60;63.90;;;;;;5108373;27;46464;-67
2023/08/27 04:58:44;;;;;;;5.97;3.43;;;17.60;63.90;;;;;;5101176;27;46478;-69
2023/08/27 05:01:09;;;;;;;5.87;3.73;;;17.60;63.80;;;;;;5103900;27;46540;-68
2023/08/27 05:03:35;;;;;;;6.73;3.70;;;17.70;63.60;;;;;;5107004;27;46505;-68
2023/08/27 05:06:01;;;;;;;6.63;4.07;;;17.70;63.50;;;;;;5083469;27;46458;-67
2023/08/27 05:08:27;;;;;;;6.27;4.43;;;17.70;63.50;;;;;;5105872;27;46279;-67
2023/08/27 05:10:53;;;;;;;8.03;4.03;;;17.70;63.50;;;;;;5091817;27;46803;-68
2023/08/27 05:13:19;;;;;;;6.57;4.17;;;17.70;63.50;;;;;;5101572;27;46557;-67
2023/08/27 05:15:45;;;;;;;5.67;3.53;;;17.80;63.60;;;;;;5101485;27;46716;-68
2023/08/27 05:18:11;;;;;;;5.10;3.50;;;17.70;63.70;;;;;;5102307;27;46800;-67
2023/08/27 05:20:38;;;;;;;7.40;4.20;;;17.70;65.00;;;;;;5102035;27;46640;-66
2023/08/27 05:23:04;;;;;;;6.43;3.57;;;17.70;63.60;;;;;;5104502;27;46472;-67
2023/08/27 05:25:30;;;;;;;6.47;3.70;;;17.80;63.40;;;;;;5105883;27;46546;-68
2023/08/27 05:27:55;;;;;;;7.13;3.40;;;17.90;63.40;;;;;;5104402;27;46505;-68
2023/08/27 05:30:21;;;;;;;6.77;3.40;;;17.90;63.20;;;;;;5105860;27;45968;-67
2023/08/27 05:32:47;;;;;;;7.13;3.67;;;18.00;63.20;;;;;;5090513;27;46663;-67
2023/08/27 05:35:13;;;;;;;5.30;3.40;;;18.00;63.10;;;;;;5103448;27;46932;-68
2023/08/27 05:37:41;;;;;;;8.20;4.10;;;18.00;63.10;;;;;;5103175;27;46409;-68
2023/08/27 05:40:08;;;;;;;5.37;3.20;;;18.00;63.20;;;;;;5088412;27;45812;-67
2023/08/27 05:42:34;;;;;;;5.77;3.37;;;18.10;63.10;;;;;;5103506;27;46465;-68
2023/08/27 05:45:01;;;;;;;5.00;3.00;;;18.10;63.00;;;;;;5085341;27;45951;-68
2023/08/27 05:47:26;;;;;;;5.43;2.97;;;18.20;62.90;;;;;;5105906;27;46481;-67
2023/08/27 05:49:53;;;;;;;5.57;3.00;;;18.20;62.90;;;;;;5107721;27;45873;-68
2023/08/27 05:52:18;;;;;;;3.87;2.43;;;18.30;62.60;;;;;;5107026;27;46465;-67
2023/08/27 05:54:44;;;;;;;4.27;2.83;;;18.30;62.40;;;;;;5107941;27;46530;-67
2023/08/27 05:57:09;;;;;;;5.20;3.20;;;18.30;62.60;;;;;;5106990;27;47308;-67
2023/08/27 05:59:35;;;;;;;5.23;2.80;;;18.40;62.70;;;;;;5107029;27;46434;-68
2023/08/27 06:02:01;;;;;;;6.73;3.33;;;18.40;62.40;;;;;;5106835;27;46826;-69
2023/08/27 06:04:27;;;;;;;5.77;3.50;;;18.50;62.20;;;;;;5106860;27;46462;-67
2023/08/27 06:06:53;;;;;;;7.90;3.40;;;18.60;62.10;;;;;;5107166;27;46717;-66
2023/08/27 06:09:19;;;;;;;6.60;3.30;;;18.60;62.20;;;;;;5107788;27;46357;-68
2023/08/27 06:11:44;;;;;;;4.90;2.90;;;18.60;62.30;;;;;;5109661;27;46717;-68
2023/08/27 06:16:39;;;;;;;8.67;3.50;;;18.50;61.80;;;;;;5057295;27;46472;-67
2023/08/27 06:19:04;;;;;;;5.60;2.60;;;18.40;62.70;;;;;;5064403;27;46787;-67
2023/08/27 06:21:30;;;;;;;3.43;2.43;;;18.50;62.80;;;;;;5071174;27;46438;-67
2023/08/27 06:23:55;;;;;;;3.83;1.87;;;18.40;62.70;;;;;;5071679;27;46483;-67
2023/08/27 06:26:21;;;;;;;3.73;2.07;;;18.40;62.90;;;;;;5066812;27;47271;-67
2023/08/27 06:28:47;;;;;;;6.57;2.13;;;18.30;63.00;;;;;;5068430;27;45945;-67
2023/08/27 06:31:13;;;;;;;2.83;1.60;;;18.30;63.00;;;;;;5074308;27;46601;-67
2023/08/27 06:33:39;;;;;;;3.30;1.63;;;18.40;63.00;;;;;;5069474;27;46649;-67
2023/08/27 06:36:05;;;;;;;3.90;1.83;;;18.40;62.80;;;;;;5064512;27;46566;-69
2023/08/27 06:38:31;;;;;;;3.30;1.97;;;18.40;63.90;;;;;;5068466;27;46399;-67
2023/08/27 06:40:58;;;;;;;8.03;2.00;;;18.50;62.50;;;;;;5066154;27;46504;-68
2023/08/27 06:43:24;;;;;;;3.40;1.67;;;18.50;62.50;;;;;;5066999;27;46800;-68
2023/08/27 06:45:50;;;;;;;3.63;1.93;;;18.50;62.40;;;;;;5047340;28;48368;-68
2023/08/27 06:48:16;;;;;;;2.80;1.40;;;18.50;62.30;;;;;;5066556;27;46447;-69
2023/08/27 06:50:42;;;;;;;2.60;1.40;;;18.40;62.30;;;;;;5068091;27;47072;-69
2023/08/27 06:53:08;;;;;;;3.63;2.10;;;18.40;62.40;;;;;;5033313;28;46263;-70
2023/08/27 06:55:34;;;;;;;6.40;1.93;;;18.30;62.40;;;;;;5052459;28;47839;-69
2023/08/27 06:57:59;;;;;;;6.73;2.17;;;18.30;62.80;;;;;;5067780;27;46448;-68
2023/08/27 07:00:25;;;;;;;3.70;2.03;;;18.20;62.90;;;;;;5066926;27;46791;-68
2023/08/27 07:02:51;;;;;;;4.07;1.87;;;18.20;62.90;;;;;;5063846;27;45910;-67
2023/08/27 07:05:17;;;;;;;3.80;1.83;;;18.10;63.00;;;;;;5065369;27;47196;-68
2023/08/27 07:07:42;;;;;;;3.63;1.60;;;18.10;63.00;;;;;;5067119;27;46825;-66
2023/08/27 07:10:09;;;;;;;2.87;1.87;;;18.10;62.90;;;;;;5052760;28;46634;-69
2023/08/27 07:12:35;;;;;;;3.93;1.67;;;18.20;62.90;;;;;;5066728;27;46717;-69
2023/08/27 07:15:02;;;;;;;2.60;1.50;;;18.20;62.80;;;;;;5064269;27;47107;-69
2023/08/27 07:17:28;;;;;;;4.33;1.53;;;18.30;62.50;;;;;;5073745;27;46337;-68
2023/08/27 07:19:54;;;;;;;2.73;1.67;;;18.40;62.40;;;;;;5067214;27;46448;-71
2023/08/27 07:22:20;;;;;;;3.70;1.47;;;18.50;63.40;;;;;;5066211;27;45813;-69
2023/08/27 07:24:46;;;;;;;3.50;1.63;;;18.60;62.00;;;;;;5064393;27;46706;-69
2023/08/27 07:27:12;;;;;;;4.10;1.50;;;18.60;62.00;;;;;;5065931;27;46399;-69
2023/08/27 07:29:37;;;;;;;7.27;1.33;;;18.60;62.00;;;;;;5065124;27;46611;-70
2023/08/27 07:32:03;;;;;;;3.07;1.27;;;18.60;62.10;;;;;;5074363;27;46751;-69
2023/08/27 07:34:30;;;;;;;4.50;1.80;;;18.60;62.00;;;;;;5066164;27;46510;-70
2023/08/27 07:36:56;;;;;;;3.33;1.70;;;18.70;61.80;;;;;;5068726;27;46761;-69
2023/08/27 07:39:22;;;;;;;2.47;1.40;;;18.80;61.70;;;;;;5067929;27;45910;-70
2023/08/27 07:41:49;;;;;;;3.83;1.80;;;18.80;61.50;;;;;;5065260;27;46714;-70
2023/08/27 07:44:18;;;;;;;4.50;1.80;;;18.90;61.50;;;;;;5072290;27;47265;-69
2023/08/27 07:46:43;;;;;;;2.87;1.67;;;19.00;60.10;;;;;;5064745;27;46896;-68
2023/08/27 07:49:10;;;;;;;4.83;1.77;;;19.00;61.10;;;;;;5065524;27;46638;-69
2023/08/27 07:51:36;;;;;;;3.63;1.70;;;19.00;61.00;;;;;;5066130;27;46474;-68
2023/08/27 07:54:02;;;;;;;3.60;1.60;;;19.10;62.30;;;;;;5065300;27;46483;-67
2023/08/27 07:56:27;;;;;;;2.70;1.67;;;19.10;60.90;;;;;;5065907;27;45879;-69
2023/08/27 07:58:53;;;;;;;3.87;1.80;;;19.10;61.50;;;;;;5064182;27;46411;-70
2023/08/27 08:01:19;;;;;;;3.13;1.80;;;19.10;60.70;;;;;;5064958;27;46269;-68
2023/08/27 08:03:44;;;;;;;3.90;1.80;;;19.10;60.50;;;;;;5066318;27;47033;-68
2023/08/27 08:06:10;;;;;;;3.83;1.63;;;19.20;60.30;;;;;;5064022;27;46434;-69
2023/08/27 08:08:36;;;;;;;4.00;1.93;;;19.30;60.10;;;;;;5066268;27;46658;-68
2023/08/27 08:11:02;;;;;;;5.00;2.57;;;19.30;60.10;;;;;;5066132;27;46849;-70
2023/08/27 08:13:27;;;;;;;4.17;1.57;;;19.30;60.10;;;;;;5064467;27;46681;-73
2023/08/27 08:15:53;;;;;;;4.07;1.80;;;19.30;60.10;;;;;;5066010;27;46470;-71
2023/08/27 08:18:19;;;;;;;3.23;1.50;;;19.30;60.10;;;;;;5064261;27;46702;-69
2023/08/27 08:20:45;;;;;;;2.67;1.53;;;19.30;60.10;;;;;;5064650;27;46289;-69
2023/08/27 08:23:11;;;;;;;3.70;1.57;;;19.30;60.10;;;;;;5064879;27;47235;-69
2023/08/27 08:25:37;;;;;;;2.43;1.47;;;19.20;60.00;;;;;;5067070;27;46760;-69
2023/08/27 08:28:05;;;;;;;3.03;1.70;;;19.20;60.00;;;;;;5066453;27;46842;-69
2023/08/27 08:30:31;;;;;;;9.03;1.67;;;19.20;60.00;;;;;;5065322;27;46483;-70
2023/08/27 08:32:57;;;;;;;5.70;1.90;;;19.20;60.00;;;;;;5062206;27;45948;-70
2023/08/27 08:35:22;;;;;;;7.07;1.63;;;19.20;60.00;;;;;;5066287;27;46727;-69
2023/08/27 08:37:48;;;;;;;3.27;1.40;;;19.20;60.00;;;;;;5067675;27;46815;-69
2023/08/27 08:40:15;;;;;;;4.90;1.77;;;19.10;60.00;;;;;;5065252;27;46387;-68
2023/08/27 08:43:10;;;;;;;4.43;1.50;;;19.10;60.00;;;;;;5053909;27;46526;-70
2023/08/27 08:45:49;;;;;;;3.37;1.57;;;19.00;60.00;;;;;;5065057;27;46771;-69
2023/08/27 08:48:22;;;;;;;2.80;1.40;;;19.10;60.00;;;;;;5071490;27;46276;-69
2023/08/27 08:50:49;;;;;;;2.80;1.37;;;18.90;60.30;;;;;;5062718;27;46895;-71
2023/08/27 08:53:17;;;;;;;3.30;1.77;;;18.80;60.80;;;;;;5062391;27;47344;-70
2023/08/27 08:55:46;;;;;;;3.23;1.33;;;18.70;61.00;;;;;;5061857;27;46358;-68
2023/08/27 08:58:13;;;;;;;3.07;1.23;;;18.60;61.00;;;;;;5063871;27;46497;-69
2023/08/27 09:00:39;;;;;;;2.60;1.30;;;18.60;61.10;;;;;;5067903;27;46391;-69
2023/08/27 09:03:04;;;;;;;3.60;1.30;;;18.60;61.00;;;;;;5064612;27;47020;-70
2023/08/27 09:05:35;;;;;;;3.57;1.53;;;18.50;60.80;;;;;;5069202;27;46529;-70
2023/08/27 09:08:02;;;;;;;4.40;1.80;;;18.50;60.70;;;;;;5065385;27;46700;-70
2023/08/27 09:10:28;;;;;;;2.73;1.50;;;18.40;60.70;;;;;;5068015;27;46572;-69
2023/08/27 09:12:56;;;;;;;4.23;1.93;;;18.40;60.80;;;;;;5069998;27;46581;-68
2023/08/27 09:15:21;;;;;;;3.20;1.60;;;18.30;60.90;;;;;;5065952;27;46679;-68
2023/08/27 09:17:47;;;;;;;3.03;1.50;;;18.30;61.00;;;;;;5064789;27;45876;-68
2023/08/27 09:20:14;;;;;;;3.13;1.47;;;18.20;61.00;;;;;;5066249;27;46414;-68
2023/08/27 09:22:41;;;;;;;4.10;1.70;;;18.20;60.80;;;;;;5067851;27;46813;-68
2023/08/27 09:25:09;;;;;;;3.80;1.93;;;18.20;60.80;;;;;;5065294;27;46682;-67
2023/08/27 09:27:36;;;;;;;4.83;1.90;;;18.20;61.00;;;;;;5067792;27;46476;-67
2023/08/27 09:30:03;;;;;;;10.83;1.83;;;18.10;60.80;;;;;;5063617;27;46336;-67
2023/08/27 09:32:29;;;;;;;4.00;1.73;;;18.10;60.80;;;;;;5066934;27;47547;-68
2023/08/27 09:34:59;;;;;;;5.70;2.03;;;18.00;60.70;;;;;;5069460;27;46477;-68
2023/08/27 09:37:36;;;;;;;4.33;1.63;;;18.10;60.50;;;;;;5067253;27;46431;-68
2023/08/27 09:40:05;;;;;;;4.63;2.13;;;18.10;60.40;;;;;;5069793;27;46700;-68
2023/08/27 09:42:32;;;;;;;4.20;1.63;;;18.10;60.40;;;;;;5068142;27;46506;-70
2023/08/27 09:44:58;;;;;;;4.93;1.67;;;18.10;60.10;;;;;;5066530;27;46689;-70
2023/08/27 09:47:38;;;;;;;6.10;1.90;;;18.20;60.00;;;;;;5068862;27;46508;-70
2023/08/27 09:50:05;;;;;;;4.70;1.80;;;18.30;59.50;;;;;;5069444;27;46845;-70
2023/08/27 09:52:31;;;;;;;4.10;1.70;;;18.30;59.50;;;;;;5067988;27;46473;-69
2023/08/27 09:54:57;;;;;;;3.40;1.90;;;18.30;59.50;;;;;;5066632;27;46448;-72
2023/08/27 09:57:22;;;;;;;3.13;1.53;;;18.40;59.40;;;;;;5070213;27;46450;-70
2023/08/27 09:59:48;;;;;;;3.80;1.40;;;18.60;59.60;;;;;;5067538;27;45926;-69
2023/08/27 10:02:15;;;;;;;2.87;1.43;;;18.70;59.50;;;;;;5069905;27;46473;-70
2023/08/27 10:04:55;;;;;;;3.20;1.83;;;18.90;58.70;;;;;;5067899;27;46708;-70
2023/08/27 10:07:21;;;;;;;2.97;1.77;;;19.10;58.40;;;;;;5062773;27;46511;-70
2023/08/27 10:09:52;;;;;;;4.37;1.60;;;19.20;58.20;;;;;;5067784;27;46197;-70
2023/08/27 10:12:18;;;;;;;3.17;1.50;;;19.20;57.90;;;;;;5067680;27;47523;-70
2023/08/27 10:14:45;;;;;;;3.53;1.70;;;19.10;57.70;;;;;;5067189;27;46510;-70
2023/08/27 10:17:12;;;;;;;3.73;1.80;;;19.10;58.20;;;;;;5067391;27;46653;-69
2023/08/27 10:19:37;;;;;;;3.33;1.70;;;19.00;58.00;;;;;;5066920;27;46717;-70
2023/08/27 10:22:04;;;;;;;3.17;1.50;;;19.20;58.30;;;;;;5066290;27;46660;-70
2023/08/27 10:24:30;;;;;;;4.53;1.90;;;18.90;58.10;;;;;;5065759;27;46466;-70
2023/08/27 10:27:03;;;;;;;5.20;1.67;;;18.80;58.30;;;;;;5063938;27;46443;-70
2023/08/27 10:29:30;;;;;;;3.60;1.60;;;18.80;58.40;;;;;;5065989;27;46143;-70
2023/08/27 10:31:56;;;;;;;3.27;1.50;;;18.80;58.80;;;;;;5064811;27;46666;-70
2023/08/27 10:34:23;;;;;;;2.80;1.40;;;18.80;58.80;;;;;;5065319;27;46450;-70
2023/08/27 10:36:51;;;;;;;3.00;1.43;;;18.70;58.60;;;;;;5067274;27;46863;-71
2023/08/27 10:39:26;;;;;;;2.83;1.40;;;18.70;58.60;;;;;;5065369;27;46589;-70
2023/08/27 10:41:52;;;;;;;4.90;1.70;;;18.70;58.70;;;;;;5067266;27;48565;-70
2023/08/27 10:44:21;;;;;;;3.37;1.80;;;18.60;58.80;;;;;;5064688;27;46479;-69
2023/08/27 10:47:19;;;;;;;3.03;1.30;;;18.70;57.40;;;;;;5065372;27;46418;-69
2023/08/27 10:49:48;;;;;;;2.67;1.57;;;18.70;58.30;;;;;;5035311;27;46425;-68
2023/08/27 10:52:19;;;;;;;3.33;1.50;;;18.70;58.30;;;;;;5065634;27;46744;-69
2023/08/27 10:54:46;;;;;;;3.07;1.33;;;18.60;58.20;;;;;;5066021;27;46436;-70
2023/08/27 10:57:21;;;;;;;2.70;1.40;;;18.60;58.30;;;;;;5068609;27;46521;-70
2023/08/27 10:59:48;;;;;;;3.50;1.40;;;18.50;58.40;;;;;;5068887;27;46479;-69
2023/08/27 11:02:16;;;;;;;2.40;1.13;;;18.50;58.60;;;;;;5065967;27;47147;-70
2023/08/27 11:04:43;;;;;;;2.80;1.27;;;18.60;58.20;;;;;;5064699;27;46171;-69
2023/08/27 11:07:19;;;;;;;2.80;1.20;;;18.60;57.90;;;;;;5066038;27;46521;-69
2023/08/27 11:09:48;;;;;;;2.27;1.13;;;18.70;57.80;;;;;;5066581;27;46186;-71
2023/08/27 11:12:32;;;;;;;2.30;1.33;;;18.70;57.80;;;;;;5064473;27;46566;-70
2023/08/27 11:15:14;;;;;;;3.83;1.20;;;18.70;57.60;;;;;;5066752;27;46434;-69
2023/08/27 11:17:40;;;;;;;2.50;1.00;;;18.70;57.80;;;;;;5067755;27;46558;-70
2023/08/27 11:20:23;;;;;;;2.50;1.10;;;18.60;57.80;;;;;;5062809;27;46257;-70
2023/08/27 11:22:59;;;;;;;2.87;1.17;;;18.50;57.80;;;;;;5065622;27;46431;-71
2023/08/27 11:25:27;;;;;;;2.50;1.10;;;18.50;57.90;;;;;;5068125;27;46493;-68
2023/08/27 11:27:58;;;;;;;4.40;1.33;;;18.50;57.90;;;;;;5068685;27;46455;-67
2023/08/27 11:30:25;;;;;;;3.57;1.30;;;18.50;57.90;;;;;;5071099;27;46479;-68
2023/08/27 11:32:51;;;;;;;4.83;1.20;;;18.60;57.70;;;;;;5064907;27;46681;-67
2023/08/27 11:35:30;;;;;;;3.10;1.20;;;18.60;57.40;;;;;;5070591;28;46432;-68
2023/08/27 11:37:56;;;;;;;3.30;1.50;;;18.70;57.20;;;;;;5069035;27;45826;-69
2023/08/27 11:40:23;;;;;;;2.17;1.13;;;18.60;57.30;;;;;;5067115;27;46847;-68
2023/08/27 11:42:53;;;;;;;5.17;1.53;;;18.60;57.50;;;;;;5071730;28;47184;-68
2023/08/27 11:45:32;;;;;;;6.13;1.43;;;18.60;57.60;;;;;;5066076;27;45882;-67
2023/08/27 11:48:06;;;;;;;5.70;1.20;;;18.50;57.40;;;;;;5071927;27;46528;-67
2023/08/27 11:50:38;;;;;;;4.03;1.13;;;18.40;57.70;;;;;;5066809;27;46510;-68
2023/08/27 11:53:04;;;;;;;2.67;1.10;;;18.40;58.00;;;;;;5067462;27;47236;-68
2023/08/27 11:55:31;;;;;;;3.27;1.00;;;18.30;58.30;;;;;;5069902;27;46387;-67
2023/08/27 11:57:57;;;;;;;3.30;1.00;;;18.30;58.40;;;;;;5066834;27;46483;-67
2023/08/27 12:00:23;;;;;;;2.67;1.20;;;18.30;58.40;;;;;;5067138;27;46410;-69
2023/08/27 12:02:49;;;;;;;6.30;1.33;;;18.30;58.30;;;;;;5066155;27;46487;-67
2023/08/27 12:05:15;;;;;;;2.37;1.10;;;18.40;58.20;;;;;;5068706;27;46448;-68
2023/08/27 12:07:42;;;;;;;2.77;1.03;;;18.40;58.20;;;;;;5068924;27;46675;-68
2023/08/27 12:10:09;;;;;;;3.67;1.40;;;18.40;58.20;;;;;;5071945;27;46411;-68
2023/08/27 12:12:42;;;;;;;2.50;1.07;;;18.40;58.00;;;;;;5065906;27;46439;-69
2023/08/27 12:15:11;;;;;;;2.40;1.10;;;18.30;57.70;;;;;;5065922;27;46462;-69
2023/08/27 12:17:37;;;;;;;3.43;1.40;;;18.40;57.90;;;;;;5068600;27;46774;-69
2023/08/27 12:20:05;;;;;;;3.47;1.30;;;18.40;57.90;;;;;;5066142;27;46416;-69
2023/08/27 12:22:41;;;;;;;2.13;0.90;;;18.40;57.70;;;;;;5068257;27;46430;-69
2023/08/27 12:25:08;;;;;;;2.97;1.50;;;18.50;57.40;;;;;;5068529;27;46485;-69
2023/08/27 12:27:33;;;;;;;2.93;1.20;;;18.60;57.20;;;;;;5065680;27;46435;-69
2023/08/27 12:29:59;;;;;;;2.77;1.17;;;18.90;56.60;;;;;;5065235;27;46462;-69
2023/08/27 12:32:30;;;;;;;2.63;1.23;;;19.10;56.10;;;;;;5070271;27;47474;-69
2023/08/27 12:34:58;;;;;;;2.20;1.10;;;19.20;55.60;;;;;;5069868;27;45826;-69
2023/08/27 12:37:24;;;;;;;2.20;1.00;;;19.20;55.70;;;;;;5065870;27;46555;-69
2023/08/27 12:39:50;;;;;;;2.33;1.17;;;19.20;55.70;;;;;;5068285;27;46455;-69
2023/08/27 12:42:16;;;;;;;4.33;1.10;;;19.20;55.80;;;;;;5067750;27;46549;-69
2023/08/27 12:44:42;;;;;;;2.30;1.10;;;19.20;55.70;;;;;;5065613;27;46476;-69
2023/08/27 12:47:08;;;;;;;2.30;1.07;;;19.10;56.00;;;;;;5065641;27;46474;-70